sensor_id;sensor_type;location;lat;lon;timestamp;P1;durP1;ratioP1;P2;durP2;ratioP2
12451;SDS011;6291;48.924;12.204;2022-08-21T00:03:27;19.73;;;17.35;;
12451;SDS011;6291;48.924;12.204;2022-08-21T00:08:31;21.35;;;17.48;;
12451;SDS011;6291;48.924;12.204;2022-08-21T00:13:37;20.77;;;17.98;;
12451;SDS011;6291;48.924;12.204;2022-08-21T00:18:40;19.73;;;17.00;;
12451;SDS011;6291;48.924;12.204;2022-08-21T00:23:44;19.77;;;16.37;;
12451;SDS011;6291;48.924;12.204;2022-08-21T00:28:49;19.53;;;15.60;;
12451;SDS011;6291;48.924;12.204;2022-08-21T00:33:52;21.27;;;16.65;;
12451;SDS011;6291;48.924;12.204;2022-08-21T00:39:01;20.95;;;16.25;;
12451;SDS011;6291;48.924;12.204;2022-08-21T00:44:09;18.73;;;16.07;;
12451;SDS011;6291;48.924;12.204;2022-08-21T00:49:14;21.35;;;16.10;;
12451;SDS011;6291;48.924;12.204;2022-08-21T00:54:17;19.35;;;15.65;;
12451;SDS011;6291;48.924;12.204;2022-08-21T00:59:25;18.93;;;15.87;;
12451;SDS011;6291;48.924;12.204;2022-08-21T01:04:30;20.00;;;16.60;;
12451;SDS011;6291;48.924;12.204;2022-08-21T01:09:34;19.40;;;16.57;;
12451;SDS011;6291;48.924;12.204;2022-08-21T01:14:39;19.45;;;16.50;;
12451;SDS011;6291;48.924;12.204;2022-08-21T01:19:44;17.67;;;15.30;;
12451;SDS011;6291;48.924;12.204;2022-08-21T01:24:48;18.20;;;15.23;;
12451;SDS011;6291;48.924;12.204;2022-08-21T01:29:54;20.30;;;16.50;;
12451;SDS011;6291;48.924;12.204;2022-08-21T01:35:00;16.65;;;14.00;;
12451;SDS011;6291;48.924;12.204;2022-08-21T01:40:06;16.92;;;14.65;;
12451;SDS011;6291;48.924;12.204;2022-08-21T01:45:12;16.92;;;15.10;;
12451;SDS011;6291;48.924;12.204;2022-08-21T01:50:17;16.33;;;14.53;;
12451;SDS011;6291;48.924;12.204;2022-08-21T01:55:24;19.07;;;15.70;;
12451;SDS011;6291;48.924;12.204;2022-08-21T02:00:27;21.92;;;17.77;;
12451;SDS011;6291;48.924;12.204;2022-08-21T02:05:30;20.50;;;17.60;;
12451;SDS011;6291;48.924;12.204;2022-08-21T02:10:35;22.47;;;18.20;;
12451;SDS011;6291;48.924;12.204;2022-08-21T02:15:39;22.85;;;18.60;;
12451;SDS011;6291;48.924;12.204;2022-08-21T02:20:43;22.23;;;18.83;;
12451;SDS011;6291;48.924;12.204;2022-08-21T02:25:58;25.47;;;19.70;;
12451;SDS011;6291;48.924;12.204;2022-08-21T02:31:04;25.47;;;19.40;;
12451;SDS011;6291;48.924;12.204;2022-08-21T02:36:09;25.60;;;19.77;;
12451;SDS011;6291;48.924;12.204;2022-08-21T02:41:16;27.27;;;20.60;;
12451;SDS011;6291;48.924;12.204;2022-08-21T02:46:22;28.48;;;20.63;;
12451;SDS011;6291;48.924;12.204;2022-08-21T02:51:25;26.80;;;20.90;;
12451;SDS011;6291;48.924;12.204;2022-08-21T02:56:30;28.58;;;21.63;;
12451;SDS011;6291;48.924;12.204;2022-08-21T03:01:33;28.70;;;21.25;;
12451;SDS011;6291;48.924;12.204;2022-08-21T03:06:38;26.90;;;21.47;;
12451;SDS011;6291;48.924;12.204;2022-08-21T03:11:43;26.60;;;19.53;;
12451;SDS011;6291;48.924;12.204;2022-08-21T03:16:47;26.17;;;20.98;;
12451;SDS011;6291;48.924;12.204;2022-08-21T03:21:51;25.58;;;19.95;;
12451;SDS011;6291;48.924;12.204;2022-08-21T03:26:55;25.23;;;20.48;;
12451;SDS011;6291;48.924;12.204;2022-08-21T03:32:00;25.88;;;19.38;;
12451;SDS011;6291;48.924;12.204;2022-08-21T03:37:03;23.77;;;18.77;;
12451;SDS011;6291;48.924;12.204;2022-08-21T03:42:09;23.83;;;18.03;;
12451;SDS011;6291;48.924;12.204;2022-08-21T03:47:13;23.63;;;18.92;;
12451;SDS011;6291;48.924;12.204;2022-08-21T03:52:17;24.13;;;18.63;;
12451;SDS011;6291;48.924;12.204;2022-08-21T03:57:22;24.40;;;18.45;;
12451;SDS011;6291;48.924;12.204;2022-08-21T04:02:25;23.57;;;18.43;;
12451;SDS011;6291;48.924;12.204;2022-08-21T04:07:28;26.02;;;18.27;;
12451;SDS011;6291;48.924;12.204;2022-08-21T04:12:33;22.45;;;17.58;;
12451;SDS011;6291;48.924;12.204;2022-08-21T04:17:36;23.77;;;18.70;;
12451;SDS011;6291;48.924;12.204;2022-08-21T04:22:40;27.67;;;19.30;;
12451;SDS011;6291;48.924;12.204;2022-08-21T04:27:45;25.65;;;18.38;;
12451;SDS011;6291;48.924;12.204;2022-08-21T04:32:49;25.17;;;19.37;;
12451;SDS011;6291;48.924;12.204;2022-08-21T04:37:53;27.10;;;20.50;;
12451;SDS011;6291;48.924;12.204;2022-08-21T04:43:01;25.00;;;19.30;;
12451;SDS011;6291;48.924;12.204;2022-08-21T04:48:07;22.05;;;17.98;;
12451;SDS011;6291;48.924;12.204;2022-08-21T04:53:16;18.80;;;16.50;;
12451;SDS011;6291;48.924;12.204;2022-08-21T04:58:24;17.43;;;15.53;;
12451;SDS011;6291;48.924;12.204;2022-08-21T05:03:29;16.63;;;14.30;;
12451;SDS011;6291;48.924;12.204;2022-08-21T05:08:35;15.98;;;14.02;;
12451;SDS011;6291;48.924;12.204;2022-08-21T05:13:42;15.10;;;13.60;;
12451;SDS011;6291;48.924;12.204;2022-08-21T05:18:45;13.32;;;12.02;;
12451;SDS011;6291;48.924;12.204;2022-08-21T05:23:48;14.30;;;12.87;;
12451;SDS011;6291;48.924;12.204;2022-08-21T05:28:53;13.00;;;11.70;;
12451;SDS011;6291;48.924;12.204;2022-08-21T05:33:57;12.47;;;11.27;;
12451;SDS011;6291;48.924;12.204;2022-08-21T05:39:03;12.00;;;10.90;;
12451;SDS011;6291;48.924;12.204;2022-08-21T05:44:08;12.20;;;11.00;;
12451;SDS011;6291;48.924;12.204;2022-08-21T05:49:12;11.77;;;10.68;;
12451;SDS011;6291;48.924;12.204;2022-08-21T05:54:16;11.50;;;10.48;;
12451;SDS011;6291;48.924;12.204;2022-08-21T05:59:20;10.10;;;9.20;;
12451;SDS011;6291;48.924;12.204;2022-08-21T06:04:24;10.23;;;9.25;;
12451;SDS011;6291;48.924;12.204;2022-08-21T06:09:28;9.88;;;8.95;;
12451;SDS011;6291;48.924;12.204;2022-08-21T06:14:32;10.40;;;9.40;;
12451;SDS011;6291;48.924;12.204;2022-08-21T06:19:36;11.23;;;10.13;;
12451;SDS011;6291;48.924;12.204;2022-08-21T06:24:40;12.30;;;10.90;;
12451;SDS011;6291;48.924;12.204;2022-08-21T06:29:45;9.73;;;8.83;;
12451;SDS011;6291;48.924;12.204;2022-08-21T06:34:48;11.30;;;10.30;;
12451;SDS011;6291;48.924;12.204;2022-08-21T06:39:51;10.60;;;9.60;;
12451;SDS011;6291;48.924;12.204;2022-08-21T06:44:57;9.60;;;8.70;;
12451;SDS011;6291;48.924;12.204;2022-08-21T06:50:01;9.30;;;8.30;;
12451;SDS011;6291;48.924;12.204;2022-08-21T06:55:07;9.50;;;8.60;;
12451;SDS011;6291;48.924;12.204;2022-08-21T07:00:15;9.20;;;8.30;;
12451;SDS011;6291;48.924;12.204;2022-08-21T07:05:18;8.68;;;7.88;;
12451;SDS011;6291;48.924;12.204;2022-08-21T07:10:21;8.40;;;7.60;;
12451;SDS011;6291;48.924;12.204;2022-08-21T07:15:27;8.10;;;7.40;;
12451;SDS011;6291;48.924;12.204;2022-08-21T07:20:31;7.88;;;7.18;;
12451;SDS011;6291;48.924;12.204;2022-08-21T07:25:35;9.27;;;8.37;;
12451;SDS011;6291;48.924;12.204;2022-08-21T07:30:39;8.93;;;8.13;;
12451;SDS011;6291;48.924;12.204;2022-08-21T07:40:46;9.98;;;9.00;;
12451;SDS011;6291;48.924;12.204;2022-08-21T07:45:53;9.57;;;8.67;;
12451;SDS011;6291;48.924;12.204;2022-08-21T07:50:56;9.17;;;8.37;;
12451;SDS011;6291;48.924;12.204;2022-08-21T07:56:01;9.27;;;8.40;;
12451;SDS011;6291;48.924;12.204;2022-08-21T08:01:06;8.73;;;7.93;;
12451;SDS011;6291;48.924;12.204;2022-08-21T08:06:10;8.17;;;7.47;;
12451;SDS011;6291;48.924;12.204;2022-08-21T08:11:13;8.90;;;8.10;;
12451;SDS011;6291;48.924;12.204;2022-08-21T08:16:18;8.90;;;8.03;;
12451;SDS011;6291;48.924;12.204;2022-08-21T08:21:22;9.40;;;8.60;;
12451;SDS011;6291;48.924;12.204;2022-08-21T08:26:25;11.83;;;10.63;;
12451;SDS011;6291;48.924;12.204;2022-08-21T08:31:30;9.60;;;8.80;;
12451;SDS011;6291;48.924;12.204;2022-08-21T08:36:35;10.02;;;9.13;;
12451;SDS011;6291;48.924;12.204;2022-08-21T08:41:41;10.65;;;9.75;;
12451;SDS011;6291;48.924;12.204;2022-08-21T08:46:49;10.67;;;9.70;;
12451;SDS011;6291;48.924;12.204;2022-08-21T08:51:59;11.73;;;10.63;;
12451;SDS011;6291;48.924;12.204;2022-08-21T08:57:07;11.43;;;10.33;;
12451;SDS011;6291;48.924;12.204;2022-08-21T09:02:15;11.50;;;10.40;;
12451;SDS011;6291;48.924;12.204;2022-08-21T09:07:22;11.07;;;10.07;;
12451;SDS011;6291;48.924;12.204;2022-08-21T09:12:33;12.90;;;11.75;;
12451;SDS011;6291;48.924;12.204;2022-08-21T09:17:54;11.50;;;10.40;;
12451;SDS011;6291;48.924;12.204;2022-08-21T09:23:13;11.15;;;10.15;;
12451;SDS011;6291;48.924;12.204;2022-08-21T09:28:23;11.73;;;10.63;;
12451;SDS011;6291;48.924;12.204;2022-08-21T09:33:29;11.65;;;10.55;;
12451;SDS011;6291;48.924;12.204;2022-08-21T09:38:33;11.75;;;10.73;;
12451;SDS011;6291;48.924;12.204;2022-08-21T09:43:38;11.82;;;10.73;;
12451;SDS011;6291;48.924;12.204;2022-08-21T09:48:45;11.65;;;10.60;;
12451;SDS011;6291;48.924;12.204;2022-08-21T09:53:51;10.35;;;9.40;;
12451;SDS011;6291;48.924;12.204;2022-08-21T09:58:57;12.00;;;10.90;;
12451;SDS011;6291;48.924;12.204;2022-08-21T10:04:03;11.63;;;10.43;;
12451;SDS011;6291;48.924;12.204;2022-08-21T10:09:09;9.50;;;8.60;;
12451;SDS011;6291;48.924;12.204;2022-08-21T10:14:26;11.10;;;10.10;;
12451;SDS011;6291;48.924;12.204;2022-08-21T10:19:46;10.88;;;9.90;;
12451;SDS011;6291;48.924;12.204;2022-08-21T10:24:56;11.80;;;10.77;;
12451;SDS011;6291;48.924;12.204;2022-08-21T10:30:06;10.55;;;9.65;;
12451;SDS011;6291;48.924;12.204;2022-08-21T10:35:17;11.57;;;10.57;;
12451;SDS011;6291;48.924;12.204;2022-08-21T10:40:26;11.20;;;10.20;;
12451;SDS011;6291;48.924;12.204;2022-08-21T10:45:40;11.55;;;10.45;;
12451;SDS011;6291;48.924;12.204;2022-08-21T10:50:54;10.20;;;9.23;;
12451;SDS011;6291;48.924;12.204;2022-08-21T10:56:08;10.40;;;9.60;;
12451;SDS011;6291;48.924;12.204;2022-08-21T11:01:20;10.52;;;9.63;;
12451;SDS011;6291;48.924;12.204;2022-08-21T11:06:31;10.93;;;10.02;;
12451;SDS011;6291;48.924;12.204;2022-08-21T11:11:36;11.13;;;10.13;;
12451;SDS011;6291;48.924;12.204;2022-08-21T11:17:01;10.07;;;9.18;;
12451;SDS011;6291;48.924;12.204;2022-08-21T11:22:15;11.50;;;10.40;;
12451;SDS011;6291;48.924;12.204;2022-08-21T11:27:24;10.90;;;9.98;;
12451;SDS011;6291;48.924;12.204;2022-08-21T11:38:28;8.77;;;8.07;;
12451;SDS011;6291;48.924;12.204;2022-08-21T11:43:38;8.75;;;8.05;;
12451;SDS011;6291;48.924;12.204;2022-08-21T11:48:46;7.82;;;7.18;;
12451;SDS011;6291;48.924;12.204;2022-08-21T11:54:02;6.97;;;6.30;;
12451;SDS011;6291;48.924;12.204;2022-08-21T11:59:10;8.50;;;7.80;;
12451;SDS011;6291;48.924;12.204;2022-08-21T12:04:22;6.45;;;5.80;;
12451;SDS011;6291;48.924;12.204;2022-08-21T12:09:33;6.03;;;5.43;;
12451;SDS011;6291;48.924;12.204;2022-08-21T12:14:39;6.50;;;5.80;;
12451;SDS011;6291;48.924;12.204;2022-08-21T12:19:44;4.65;;;4.32;;
12451;SDS011;6291;48.924;12.204;2022-08-21T12:25:05;5.30;;;4.90;;
12451;SDS011;6291;48.924;12.204;2022-08-21T12:30:19;6.47;;;5.97;;
12451;SDS011;6291;48.924;12.204;2022-08-21T12:35:33;7.00;;;6.50;;
12451;SDS011;6291;48.924;12.204;2022-08-21T12:40:47;4.30;;;4.00;;
12451;SDS011;6291;48.924;12.204;2022-08-21T12:45:54;5.40;;;4.90;;
12451;SDS011;6291;48.924;12.204;2022-08-21T12:51:03;3.47;;;3.20;;
12451;SDS011;6291;48.924;12.204;2022-08-21T12:56:15;3.10;;;2.90;;
12451;SDS011;6291;48.924;12.204;2022-08-21T13:01:22;2.95;;;2.75;;
12451;SDS011;6291;48.924;12.204;2022-08-21T13:06:29;3.10;;;2.90;;
12451;SDS011;6291;48.924;12.204;2022-08-21T13:11:40;3.58;;;3.30;;
12451;SDS011;6291;48.924;12.204;2022-08-21T13:16:46;3.20;;;2.90;;
12451;SDS011;6291;48.924;12.204;2022-08-21T13:21:50;3.60;;;3.40;;
12451;SDS011;6291;48.924;12.204;2022-08-21T13:26:55;3.75;;;1.98;;
12451;SDS011;6291;48.924;12.204;2022-08-21T13:32:00;2.55;;;2.35;;
12451;SDS011;6291;48.924;12.204;2022-08-21T13:37:06;2.67;;;2.47;;
12451;SDS011;6291;48.924;12.204;2022-08-21T13:42:15;2.80;;;2.60;;
12451;SDS011;6291;48.924;12.204;2022-08-21T13:47:19;3.03;;;2.83;;
12451;SDS011;6291;48.924;12.204;2022-08-21T13:52:23;3.22;;;2.92;;
12451;SDS011;6291;48.924;12.204;2022-08-21T13:57:31;2.63;;;2.42;;
12451;SDS011;6291;48.924;12.204;2022-08-21T14:02:37;2.90;;;2.70;;
12451;SDS011;6291;48.924;12.204;2022-08-21T14:07:43;2.83;;;2.50;;
12451;SDS011;6291;48.924;12.204;2022-08-21T14:12:50;2.40;;;2.20;;
12451;SDS011;6291;48.924;12.204;2022-08-21T14:18:05;2.30;;;2.20;;
12451;SDS011;6291;48.924;12.204;2022-08-21T14:23:12;3.03;;;2.70;;
12451;SDS011;6291;48.924;12.204;2022-08-21T14:28:29;2.85;;;2.40;;
12451;SDS011;6291;48.924;12.204;2022-08-21T14:33:34;2.67;;;2.47;;
12451;SDS011;6291;48.924;12.204;2022-08-21T14:38:39;2.67;;;2.47;;
12451;SDS011;6291;48.924;12.204;2022-08-21T14:43:45;3.03;;;2.60;;
12451;SDS011;6291;48.924;12.204;2022-08-21T14:49:06;2.87;;;2.67;;
12451;SDS011;6291;48.924;12.204;2022-08-21T14:54:10;3.30;;;3.00;;
12451;SDS011;6291;48.924;12.204;2022-08-21T14:59:15;2.80;;;2.60;;
12451;SDS011;6291;48.924;12.204;2022-08-21T15:04:21;5.27;;;4.87;;
12451;SDS011;6291;48.924;12.204;2022-08-21T15:09:25;3.63;;;3.33;;
12451;SDS011;6291;48.924;12.204;2022-08-21T15:14:32;2.97;;;2.50;;
12451;SDS011;6291;48.924;12.204;2022-08-21T15:19:39;3.25;;;2.90;;
12451;SDS011;6291;48.924;12.204;2022-08-21T15:24:43;3.10;;;2.60;;
12451;SDS011;6291;48.924;12.204;2022-08-21T15:29:48;3.30;;;3.00;;
12451;SDS011;6291;48.924;12.204;2022-08-21T15:34:55;3.07;;;2.87;;
12451;SDS011;6291;48.924;12.204;2022-08-21T15:39:59;2.70;;;2.50;;
12451;SDS011;6291;48.924;12.204;2022-08-21T15:45:05;3.10;;;2.80;;
12451;SDS011;6291;48.924;12.204;2022-08-21T15:50:10;3.38;;;3.08;;
12451;SDS011;6291;48.924;12.204;2022-08-21T15:55:15;2.80;;;2.60;;
12451;SDS011;6291;48.924;12.204;2022-08-21T16:00:21;2.70;;;2.50;;
12451;SDS011;6291;48.924;12.204;2022-08-21T16:05:25;3.00;;;2.80;;
12451;SDS011;6291;48.924;12.204;2022-08-21T16:10:29;3.20;;;2.90;;
12451;SDS011;6291;48.924;12.204;2022-08-21T16:15:33;3.33;;;3.03;;
12451;SDS011;6291;48.924;12.204;2022-08-21T16:20:37;3.13;;;2.83;;
12451;SDS011;6291;48.924;12.204;2022-08-21T16:25:40;2.72;;;2.42;;
12451;SDS011;6291;48.924;12.204;2022-08-21T16:30:47;2.78;;;2.58;;
12451;SDS011;6291;48.924;12.204;2022-08-21T16:35:52;3.55;;;3.25;;
12451;SDS011;6291;48.924;12.204;2022-08-21T16:40:55;2.30;;;2.10;;
12451;SDS011;6291;48.924;12.204;2022-08-21T16:46:00;2.50;;;2.30;;
12451;SDS011;6291;48.924;12.204;2022-08-21T16:51:04;2.50;;;2.30;;
12451;SDS011;6291;48.924;12.204;2022-08-21T16:56:08;2.50;;;2.20;;
12451;SDS011;6291;48.924;12.204;2022-08-21T17:01:15;2.55;;;2.35;;
12451;SDS011;6291;48.924;12.204;2022-08-21T17:06:21;3.20;;;2.80;;
12451;SDS011;6291;48.924;12.204;2022-08-21T17:11:30;2.67;;;2.47;;
12451;SDS011;6291;48.924;12.204;2022-08-21T17:16:41;2.43;;;2.23;;
12451;SDS011;6291;48.924;12.204;2022-08-21T17:21:48;2.70;;;2.50;;
12451;SDS011;6291;48.924;12.204;2022-08-21T17:26:51;2.60;;;2.40;;
12451;SDS011;6291;48.924;12.204;2022-08-21T17:31:58;2.70;;;2.50;;
12451;SDS011;6291;48.924;12.204;2022-08-21T17:37:01;2.50;;;2.30;;
12451;SDS011;6291;48.924;12.204;2022-08-21T17:42:06;2.70;;;2.50;;
12451;SDS011;6291;48.924;12.204;2022-08-21T17:47:14;2.70;;;2.50;;
12451;SDS011;6291;48.924;12.204;2022-08-21T17:52:18;3.50;;;3.17;;
12451;SDS011;6291;48.924;12.204;2022-08-21T17:57:22;3.73;;;3.43;;
12451;SDS011;6291;48.924;12.204;2022-08-21T18:02:30;3.13;;;2.50;;
12451;SDS011;6291;48.924;12.204;2022-08-21T18:07:33;2.78;;;2.58;;
12451;SDS011;6291;48.924;12.204;2022-08-21T18:12:37;2.93;;;2.63;;
12451;SDS011;6291;48.924;12.204;2022-08-21T18:17:45;3.30;;;3.00;;
12451;SDS011;6291;48.924;12.204;2022-08-21T18:22:49;3.25;;;2.95;;
12451;SDS011;6291;48.924;12.204;2022-08-21T18:27:53;3.30;;;2.60;;
12451;SDS011;6291;48.924;12.204;2022-08-21T18:32:58;2.95;;;2.75;;
12451;SDS011;6291;48.924;12.204;2022-08-21T18:38:02;3.03;;;2.72;;
12451;SDS011;6291;48.924;12.204;2022-08-21T18:43:06;3.20;;;2.90;;
12451;SDS011;6291;48.924;12.204;2022-08-21T18:48:17;3.03;;;2.83;;
12451;SDS011;6291;48.924;12.204;2022-08-21T18:53:23;3.90;;;3.00;;
12451;SDS011;6291;48.924;12.204;2022-08-21T18:58:29;4.28;;;3.13;;
12451;SDS011;6291;48.924;12.204;2022-08-21T19:03:34;4.33;;;3.47;;
12451;SDS011;6291;48.924;12.204;2022-08-21T19:08:37;3.60;;;3.30;;
12451;SDS011;6291;48.924;12.204;2022-08-21T19:13:41;4.28;;;3.47;;
12451;SDS011;6291;48.924;12.204;2022-08-21T19:18:46;3.88;;;3.58;;
12451;SDS011;6291;48.924;12.204;2022-08-21T19:23:50;3.83;;;3.30;;
12451;SDS011;6291;48.924;12.204;2022-08-21T19:28:54;3.90;;;3.20;;
12451;SDS011;6291;48.924;12.204;2022-08-21T19:34:04;3.47;;;3.10;;
12451;SDS011;6291;48.924;12.204;2022-08-21T19:44:15;4.43;;;3.30;;
12451;SDS011;6291;48.924;12.204;2022-08-21T19:49:24;3.40;;;3.00;;
12451;SDS011;6291;48.924;12.204;2022-08-21T19:59:37;3.37;;;3.07;;
12451;SDS011;6291;48.924;12.204;2022-08-21T20:04:43;3.77;;;3.20;;
12451;SDS011;6291;48.924;12.204;2022-08-21T20:10:07;4.75;;;3.10;;
12451;SDS011;6291;48.924;12.204;2022-08-21T20:15:10;3.60;;;3.00;;
12451;SDS011;6291;48.924;12.204;2022-08-21T20:20:16;3.17;;;2.87;;
12451;SDS011;6291;48.924;12.204;2022-08-21T20:25:20;3.55;;;2.92;;
12451;SDS011;6291;48.924;12.204;2022-08-21T20:30:23;3.80;;;3.40;;
12451;SDS011;6291;48.924;12.204;2022-08-21T20:40:32;5.10;;;3.90;;
12451;SDS011;6291;48.924;12.204;2022-08-21T20:45:36;4.43;;;4.03;;
12451;SDS011;6291;48.924;12.204;2022-08-21T20:50:43;4.50;;;4.10;;
12451;SDS011;6291;48.924;12.204;2022-08-21T20:55:49;4.93;;;3.63;;
12451;SDS011;6291;48.924;12.204;2022-08-21T21:00:53;4.40;;;4.00;;
12451;SDS011;6291;48.924;12.204;2022-08-21T21:06:02;4.35;;;3.83;;
12451;SDS011;6291;48.924;12.204;2022-08-21T21:11:10;4.43;;;4.13;;
12451;SDS011;6291;48.924;12.204;2022-08-21T21:16:18;5.20;;;4.40;;
12451;SDS011;6291;48.924;12.204;2022-08-21T21:21:30;5.00;;;4.53;;
12451;SDS011;6291;48.924;12.204;2022-08-21T21:26:37;5.03;;;4.60;;
12451;SDS011;6291;48.924;12.204;2022-08-21T21:31:49;5.65;;;5.07;;
12451;SDS011;6291;48.924;12.204;2022-08-21T21:36:56;5.22;;;4.72;;
12451;SDS011;6291;48.924;12.204;2022-08-21T21:42:06;6.07;;;5.57;;
12451;SDS011;6291;48.924;12.204;2022-08-21T21:47:18;5.80;;;5.30;;
12451;SDS011;6291;48.924;12.204;2022-08-21T21:52:34;5.70;;;5.20;;
12451;SDS011;6291;48.924;12.204;2022-08-21T21:57:52;6.30;;;5.68;;
12451;SDS011;6291;48.924;12.204;2022-08-21T22:03:06;6.30;;;5.50;;
12451;SDS011;6291;48.924;12.204;2022-08-21T22:08:20;6.17;;;5.60;;
12451;SDS011;6291;48.924;12.204;2022-08-21T22:13:31;6.10;;;5.50;;
12451;SDS011;6291;48.924;12.204;2022-08-21T22:18:40;5.90;;;5.30;;
12451;SDS011;6291;48.924;12.204;2022-08-21T22:23:59;6.03;;;5.53;;
12451;SDS011;6291;48.924;12.204;2022-08-21T22:29:13;6.82;;;6.13;;
12451;SDS011;6291;48.924;12.204;2022-08-21T22:34:22;6.75;;;6.15;;
12451;SDS011;6291;48.924;12.204;2022-08-21T22:39:28;6.10;;;5.60;;
12451;SDS011;6291;48.924;12.204;2022-08-21T22:44:46;6.43;;;5.82;;
12451;SDS011;6291;48.924;12.204;2022-08-21T22:49:52;6.25;;;5.75;;
12451;SDS011;6291;48.924;12.204;2022-08-21T22:55:17;6.43;;;5.50;;
12451;SDS011;6291;48.924;12.204;2022-08-21T23:00:33;6.95;;;5.85;;
12451;SDS011;6291;48.924;12.204;2022-08-21T23:05:51;6.25;;;5.72;;
12451;SDS011;6291;48.924;12.204;2022-08-21T23:10:58;5.80;;;5.30;;
12451;SDS011;6291;48.924;12.204;2022-08-21T23:16:06;5.97;;;5.38;;
12451;SDS011;6291;48.924;12.204;2022-08-21T23:21:21;5.90;;;5.40;;
12451;SDS011;6291;48.924;12.204;2022-08-21T23:26:35;5.37;;;4.97;;
12451;SDS011;6291;48.924;12.204;2022-08-21T23:31:54;5.70;;;5.20;;
12451;SDS011;6291;48.924;12.204;2022-08-21T23:37:07;5.30;;;4.90;;
12451;SDS011;6291;48.924;12.204;2022-08-21T23:42:57;5.65;;;5.10;;
12451;SDS011;6291;48.924;12.204;2022-08-21T23:48:14;5.63;;;4.70;;
12451;SDS011;6291;48.924;12.204;2022-08-21T23:53:32;6.18;;;4.70;;
12451;SDS011;6291;48.924;12.204;2022-08-21T23:58:53;5.10;;;4.70;;
